sensor_id;sensor_type;location;lat;lon;timestamp;pressure;altitude;pressure_sealevel;temperature;humidity
49627;BME280;35527;54.616;39.786;2023-04-07T00:01:58;100607.72;;;5.13;53.02
49627;BME280;35527;54.616;39.786;2023-04-07T00:05:01;100607.72;;;5.10;53.42
49627;BME280;35527;54.616;39.786;2023-04-07T00:08:06;100609.44;;;5.08;53.58
49627;BME280;35527;54.616;39.786;2023-04-07T00:11:14;100602.63;;;5.04;53.57
49627;BME280;35527;54.616;39.786;2023-04-07T00:14:17;100606.06;;;5.01;53.62
49627;BME280;35527;54.616;39.786;2023-04-07T00:17:19;100602.59;;;5.01;53.58
49627;BME280;35527;54.616;39.786;2023-04-07T00:20:25;100599.22;;;4.97;52.99
49627;BME280;35527;54.616;39.786;2023-04-07T00:23:29;100576.19;;;4.82;52.91
49627;BME280;35527;54.616;39.786;2023-04-07T00:26:33;100603.50;;;4.96;52.42
49627;BME280;35527;54.616;39.786;2023-04-07T00:29:36;100606.03;;;4.95;52.65
49627;BME280;35527;54.616;39.786;2023-04-07T00:32:40;100606.94;;;4.89;52.58
49627;BME280;35527;54.616;39.786;2023-04-07T00:39:10;100619.81;;;4.54;53.49
49627;BME280;35527;54.616;39.786;2023-04-07T00:42:13;100614.72;;;4.14;54.57
49627;BME280;35527;54.616;39.786;2023-04-07T00:45:17;100620.69;;;4.05;55.46
49627;BME280;35527;54.616;39.786;2023-04-07T00:48:24;100623.25;;;4.25;56.18
49627;BME280;35527;54.616;39.786;2023-04-07T00:51:28;100613.03;;;4.27;56.33
49627;BME280;35527;54.616;39.786;2023-04-07T00:54:30;100613.00;;;4.28;56.74
49627;BME280;35527;54.616;39.786;2023-04-07T00:57:35;100619.00;;;4.26;57.48
49627;BME280;35527;54.616;39.786;2023-04-07T01:01:18;100622.41;;;4.22;57.73
49627;BME280;35527;54.616;39.786;2023-04-07T01:04:11;100615.59;;;4.13;57.51
49627;BME280;35527;54.616;39.786;2023-04-07T01:07:30;100615.56;;;4.05;57.43
49627;BME280;35527;54.616;39.786;2023-04-07T01:13:57;100615.56;;;3.92;57.35
49627;BME280;35527;54.616;39.786;2023-04-07T01:17:12;100617.28;;;3.93;57.06
49627;BME280;35527;54.616;39.786;2023-04-07T01:20:19;100618.13;;;3.99;56.30
49627;BME280;35527;54.616;39.786;2023-04-07T01:23:31;100619.00;;;4.00;56.74
49627;BME280;35527;54.616;39.786;2023-04-07T01:26:41;100620.69;;;3.96;57.35
49627;BME280;35527;54.616;39.786;2023-04-07T01:29:46;100621.53;;;3.94;57.60
49627;BME280;35527;54.616;39.786;2023-04-07T01:32:52;100621.53;;;3.88;57.42
49627;BME280;35527;54.616;39.786;2023-04-07T01:36:00;100620.69;;;3.79;58.26
49627;BME280;35527;54.616;39.786;2023-04-07T01:39:05;100617.25;;;3.76;58.82
49627;BME280;35527;54.616;39.786;2023-04-07T01:42:09;100614.69;;;3.74;59.01
49627;BME280;35527;54.616;39.786;2023-04-07T01:45:13;100614.69;;;3.70;59.28
49627;BME280;35527;54.616;39.786;2023-04-07T01:48:19;100612.09;;;3.60;59.35
49627;BME280;35527;54.616;39.786;2023-04-07T01:51:21;100620.59;;;3.49;59.52
49627;BME280;35527;54.616;39.786;2023-04-07T01:54:25;100618.91;;;3.45;59.80
49627;BME280;35527;54.616;39.786;2023-04-07T01:57:28;100620.59;;;3.46;59.64
49627;BME280;35527;54.616;39.786;2023-04-07T02:00:36;100618.88;;;3.40;59.21
49627;BME280;35527;54.616;39.786;2023-04-07T02:03:48;100623.97;;;3.35;60.02
49627;BME280;35527;54.616;39.786;2023-04-07T02:06:58;100621.41;;;3.31;59.51
49627;BME280;35527;54.616;39.786;2023-04-07T02:10:09;100620.53;;;3.27;60.19
49627;BME280;35527;54.616;39.786;2023-04-07T02:13:15;100628.22;;;3.27;60.50
49627;BME280;35527;54.616;39.786;2023-04-07T02:16:20;100624.81;;;3.24;60.92
49627;BME280;35527;54.616;39.786;2023-04-07T02:19:25;100623.06;;;3.15;61.31
49627;BME280;35527;54.616;39.786;2023-04-07T02:22:28;100626.47;;;3.15;62.00
49627;BME280;35527;54.616;39.786;2023-04-07T02:25:33;100626.47;;;3.12;61.24
49627;BME280;35527;54.616;39.786;2023-04-07T02:28:39;100628.09;;;3.01;61.67
49627;BME280;35527;54.616;39.786;2023-04-07T02:31:41;100629.84;;;3.07;61.68
49627;BME280;35527;54.616;39.786;2023-04-07T02:34:45;100629.81;;;3.05;61.34
49627;BME280;35527;54.616;39.786;2023-04-07T02:37:51;100634.94;;;3.05;61.60
49627;BME280;35527;54.616;39.786;2023-04-07T02:40:53;100645.16;;;3.05;61.23
49627;BME280;35527;54.616;39.786;2023-04-07T02:43:59;100642.63;;;3.08;61.43
49627;BME280;35527;54.616;39.786;2023-04-07T02:47:04;100644.34;;;3.12;61.05
49627;BME280;35527;54.616;39.786;2023-04-07T02:50:13;100650.34;;;3.19;61.65
49627;BME280;35527;54.616;39.786;2023-04-07T02:53:17;100651.22;;;3.26;61.19
49627;BME280;35527;54.616;39.786;2023-04-07T02:56:22;100652.13;;;3.40;60.90
49627;BME280;35527;54.616;39.786;2023-04-07T02:59:25;100658.25;;;3.85;61.00
49627;BME280;35527;54.616;39.786;2023-04-07T03:02:28;100653.13;;;4.60;59.03
49627;BME280;35527;54.616;39.786;2023-04-07T03:05:32;100659.81;;;5.29;57.01
49627;BME280;35527;54.616;39.786;2023-04-07T03:08:37;100649.31;;;5.75;55.66
49627;BME280;35527;54.616;39.786;2023-04-07T03:11:41;100655.88;;;6.25;54.28
49627;BME280;35527;54.616;39.786;2023-04-07T03:14:49;100660.59;;;6.75;52.68
49627;BME280;35527;54.616;39.786;2023-04-07T03:17:52;100655.72;;;7.28;51.27
49627;BME280;35527;54.616;39.786;2023-04-07T03:20:56;100666.28;;;7.75;49.79
49627;BME280;35527;54.616;39.786;2023-04-07T03:24:00;100667.63;;;8.02;48.33
49627;BME280;35527;54.616;39.786;2023-04-07T03:27:04;100668.84;;;8.33;47.39
49627;BME280;35527;54.616;39.786;2023-04-07T03:30:19;100661.94;;;8.87;46.81
49627;BME280;35527;54.616;39.786;2023-04-07T03:33:23;100666.69;;;9.52;45.01
49627;BME280;35527;54.616;39.786;2023-04-07T03:36:28;100676.09;;;9.96;43.74
49627;BME280;35527;54.616;39.786;2023-04-07T03:39:35;100679.38;;;10.40;43.27
49627;BME280;35527;54.616;39.786;2023-04-07T03:42:53;100680.63;;;10.94;42.26
49627;BME280;35527;54.616;39.786;2023-04-07T03:45:57;100681.97;;;11.38;41.29
49627;BME280;35527;54.616;39.786;2023-04-07T03:49:00;100680.81;;;11.78;40.10
49627;BME280;35527;54.616;39.786;2023-04-07T03:52:08;100693.72;;;12.36;38.94
49627;BME280;35527;54.616;39.786;2023-04-07T03:55:14;100689.94;;;12.73;38.65
49627;BME280;35527;54.616;39.786;2023-04-07T03:58:17;100686.34;;;13.27;37.34
49627;BME280;35527;54.616;39.786;2023-04-07T04:01:22;100701.47;;;12.64;37.31
49627;BME280;35527;54.616;39.786;2023-04-07T04:04:25;100687.38;;;13.21;36.76
49627;BME280;35527;54.616;39.786;2023-04-07T04:07:31;100700.38;;;13.92;36.18
49627;BME280;35527;54.616;39.786;2023-04-07T04:10:39;100704.34;;;14.02;34.16
49627;BME280;35527;54.616;39.786;2023-04-07T04:13:43;100691.97;;;14.29;34.40
49627;BME280;35527;54.616;39.786;2023-04-07T04:16:49;100704.09;;;14.93;33.11
49627;BME280;35527;54.616;39.786;2023-04-07T04:20:01;100701.41;;;15.54;32.19
49627;BME280;35527;54.616;39.786;2023-04-07T04:23:15;100705.75;;;15.74;32.04
49627;BME280;35527;54.616;39.786;2023-04-07T04:26:19;100706.47;;;15.78;32.23
49627;BME280;35527;54.616;39.786;2023-04-07T04:29:26;100713.38;;;16.34;31.59
49627;BME280;35527;54.616;39.786;2023-04-07T04:32:30;100711.47;;;16.73;31.05
49627;BME280;35527;54.616;39.786;2023-04-07T04:35:33;100708.50;;;16.98;29.97
49627;BME280;35527;54.616;39.786;2023-04-07T04:38:49;100712.72;;;17.33;29.45
49627;BME280;35527;54.616;39.786;2023-04-07T04:41:56;100707.91;;;17.26;29.46
49627;BME280;35527;54.616;39.786;2023-04-07T04:45:06;100714.03;;;17.91;28.20
49627;BME280;35527;54.616;39.786;2023-04-07T04:48:15;100713.19;;;18.37;27.66
49627;BME280;35527;54.616;39.786;2023-04-07T04:51:19;100715.28;;;18.16;27.80
49627;BME280;35527;54.616;39.786;2023-04-07T04:54:31;100720.78;;;18.57;27.50
49627;BME280;35527;54.616;39.786;2023-04-07T04:57:35;100715.69;;;19.15;26.69
49627;BME280;35527;54.616;39.786;2023-04-07T05:00:42;100725.81;;;19.21;26.61
49627;BME280;35527;54.616;39.786;2023-04-07T05:03:47;100726.28;;;19.56;25.74
49627;BME280;35527;54.616;39.786;2023-04-07T05:06:55;100722.56;;;20.01;25.78
49627;BME280;35527;54.616;39.786;2023-04-07T05:10:02;100739.69;;;20.76;24.84
49627;BME280;35527;54.616;39.786;2023-04-07T05:13:08;100726.22;;;21.06;23.96
49627;BME280;35527;54.616;39.786;2023-04-07T05:16:12;100730.75;;;20.51;24.67
49627;BME280;35527;54.616;39.786;2023-04-07T05:19:17;100722.50;;;20.03;24.91
49627;BME280;35527;54.616;39.786;2023-04-07T05:22:22;100735.59;;;20.17;25.08
49627;BME280;35527;54.616;39.786;2023-04-07T05:25:27;100732.75;;;19.79;25.37
49627;BME280;35527;54.616;39.786;2023-04-07T05:28:33;100740.47;;;20.36;24.49
49627;BME280;35527;54.616;39.786;2023-04-07T05:31:42;100745.34;;;20.42;24.64
49627;BME280;35527;54.616;39.786;2023-04-07T05:34:49;100737.53;;;20.55;24.50
49627;BME280;35527;54.616;39.786;2023-04-07T05:37:52;100747.53;;;19.94;25.39
49627;BME280;35527;54.616;39.786;2023-04-07T05:40:55;100744.94;;;20.88;24.01
49627;BME280;35527;54.616;39.786;2023-04-07T05:44:05;100742.94;;;21.81;23.19
49627;BME280;35527;54.616;39.786;2023-04-07T05:47:11;100738.03;;;21.51;22.91
49627;BME280;35527;54.616;39.786;2023-04-07T05:50:16;100736.88;;;21.43;23.10
49627;BME280;35527;54.616;39.786;2023-04-07T05:53:21;100748.78;;;21.35;23.46
49627;BME280;35527;54.616;39.786;2023-04-07T05:56:25;100747.88;;;22.23;22.48
49627;BME280;35527;54.616;39.786;2023-04-07T05:59:29;100746.09;;;22.47;22.16
49627;BME280;35527;54.616;39.786;2023-04-07T06:02:35;100758.88;;;23.00;21.99
49627;BME280;35527;54.616;39.786;2023-04-07T06:05:38;100759.91;;;23.44;21.54
49627;BME280;35527;54.616;39.786;2023-04-07T06:08:47;100760.88;;;23.88;21.04
49627;BME280;35527;54.616;39.786;2023-04-07T06:11:50;100763.44;;;24.44;20.61
49627;BME280;35527;54.616;39.786;2023-04-07T06:14:55;100760.94;;;24.85;20.14
49627;BME280;35527;54.616;39.786;2023-04-07T06:18:01;100759.22;;;25.16;20.22
49627;BME280;35527;54.616;39.786;2023-04-07T06:21:07;100756.53;;;26.08;19.02
49627;BME280;35527;54.616;39.786;2023-04-07T06:24:10;100757.53;;;26.75;18.28
49627;BME280;35527;54.616;39.786;2023-04-07T06:27:12;100758.53;;;26.74;17.91
49627;BME280;35527;54.616;39.786;2023-04-07T06:30:15;100764.78;;;26.34;18.17
49627;BME280;35527;54.616;39.786;2023-04-07T06:33:19;100762.53;;;26.10;18.21
49627;BME280;35527;54.616;39.786;2023-04-07T06:36:27;100764.47;;;26.08;18.67
49627;BME280;35527;54.616;39.786;2023-04-07T06:39:30;100767.34;;;24.82;19.73
49627;BME280;35527;54.616;39.786;2023-04-07T06:42:37;100767.53;;;22.67;21.58
49627;BME280;35527;54.616;39.786;2023-04-07T06:45:51;100762.59;;;22.01;22.44
49627;BME280;35527;54.616;39.786;2023-04-07T06:48:54;100759.31;;;22.11;22.21
49627;BME280;35527;54.616;39.786;2023-04-07T06:52:03;100754.88;;;22.24;22.04
49627;BME280;35527;54.616;39.786;2023-04-07T06:55:06;100759.63;;;23.13;21.12
49627;BME280;35527;54.616;39.786;2023-04-07T06:58:10;100763.69;;;24.30;20.06
49627;BME280;35527;54.616;39.786;2023-04-07T07:01:13;100769.97;;;25.45;18.95
49627;BME280;35527;54.616;39.786;2023-04-07T07:04:18;100766.19;;;25.78;18.66
49627;BME280;35527;54.616;39.786;2023-04-07T07:07:23;100767.66;;;25.10;18.77
49627;BME280;35527;54.616;39.786;2023-04-07T07:10:28;100772.66;;;24.39;19.27
49627;BME280;35527;54.616;39.786;2023-04-07T07:13:35;100771.81;;;25.85;18.18
49627;BME280;35527;54.616;39.786;2023-04-07T07:16:40;100768.59;;;25.51;18.04
49627;BME280;35527;54.616;39.786;2023-04-07T07:19:43;100766.16;;;25.69;18.00
49627;BME280;35527;54.616;39.786;2023-04-07T07:22:55;100761.78;;;25.89;17.81
49627;BME280;35527;54.616;39.786;2023-04-07T07:25:59;100761.44;;;26.13;17.55
49627;BME280;35527;54.616;39.786;2023-04-07T07:29:02;100766.22;;;26.67;17.10
49627;BME280;35527;54.616;39.786;2023-04-07T07:32:05;100757.38;;;26.96;16.99
49627;BME280;35527;54.616;39.786;2023-04-07T07:35:08;100764.25;;;26.60;17.57
49627;BME280;35527;54.616;39.786;2023-04-07T07:38:14;100756.78;;;26.05;17.82
49627;BME280;35527;54.616;39.786;2023-04-07T07:41:16;100766.47;;;25.45;18.12
49627;BME280;35527;54.616;39.786;2023-04-07T07:44:19;100742.00;;;25.62;17.71
49627;BME280;35527;54.616;39.786;2023-04-07T07:47:23;100754.25;;;25.63;17.73
49627;BME280;35527;54.616;39.786;2023-04-07T07:50:27;100755.97;;;25.33;18.00
49627;BME280;35527;54.616;39.786;2023-04-07T07:53:31;100762.75;;;25.05;17.53
49627;BME280;35527;54.616;39.786;2023-04-07T07:56:36;100764.13;;;24.46;18.02
49627;BME280;35527;54.616;39.786;2023-04-07T07:59:39;100760.44;;;24.91;17.76
49627;BME280;35527;54.616;39.786;2023-04-07T08:02:43;100751.00;;;24.77;18.03
49627;BME280;35527;54.616;39.786;2023-04-07T08:05:47;100757.78;;;24.26;18.17
49627;BME280;35527;54.616;39.786;2023-04-07T08:08:50;100757.31;;;24.65;18.25
49627;BME280;35527;54.616;39.786;2023-04-07T08:11:52;100763.84;;;25.24;17.81
49627;BME280;35527;54.616;39.786;2023-04-07T08:14:58;100764.75;;;24.71;18.33
49627;BME280;35527;54.616;39.786;2023-04-07T08:18:01;100760.53;;;24.47;18.95
49627;BME280;35527;54.616;39.786;2023-04-07T08:21:06;100763.28;;;25.20;18.47
49627;BME280;35527;54.616;39.786;2023-04-07T08:24:09;100751.72;;;25.52;17.85
49627;BME280;35527;54.616;39.786;2023-04-07T08:27:12;100758.28;;;24.64;18.11
49627;BME280;35527;54.616;39.786;2023-04-07T08:30:17;100761.34;;;24.48;18.69
49627;BME280;35527;54.616;39.786;2023-04-07T08:33:20;100756.94;;;24.90;18.11
49627;BME280;35527;54.616;39.786;2023-04-07T08:36:30;100762.56;;;24.76;18.33
49627;BME280;35527;54.616;39.786;2023-04-07T08:39:36;100766.22;;;24.20;18.72
49627;BME280;35527;54.616;39.786;2023-04-07T08:42:41;100762.66;;;24.10;18.64
49627;BME280;35527;54.616;39.786;2023-04-07T08:45:45;100763.75;;;24.40;18.55
49627;BME280;35527;54.616;39.786;2023-04-07T08:48:55;100764.88;;;24.90;18.12
49627;BME280;35527;54.616;39.786;2023-04-07T08:51:58;100769.31;;;23.82;18.65
49627;BME280;35527;54.616;39.786;2023-04-07T08:55:02;100765.72;;;23.03;19.65
49627;BME280;35527;54.616;39.786;2023-04-07T08:58:04;100764.72;;;22.57;20.28
49627;BME280;35527;54.616;39.786;2023-04-07T09:01:10;100761.19;;;22.69;20.33
49627;BME280;35527;54.616;39.786;2023-04-07T09:04:13;100764.06;;;22.78;19.62
49627;BME280;35527;54.616;39.786;2023-04-07T09:07:15;100754.19;;;22.92;19.26
49627;BME280;35527;54.616;39.786;2023-04-07T09:10:19;100751.97;;;23.22;18.97
49627;BME280;35527;54.616;39.786;2023-04-07T09:13:23;100756.59;;;22.96;19.04
49627;BME280;35527;54.616;39.786;2023-04-07T09:16:27;100748.91;;;22.92;18.92
49627;BME280;35527;54.616;39.786;2023-04-07T09:19:30;100752.75;;;21.79;20.04
49627;BME280;35527;54.616;39.786;2023-04-07T09:25:41;100752.63;;;22.31;19.53
49627;BME280;35527;54.616;39.786;2023-04-07T09:28:45;100757.28;;;22.27;20.17
49627;BME280;35527;54.616;39.786;2023-04-07T09:31:52;100761.34;;;21.45;19.84
49627;BME280;35527;54.616;39.786;2023-04-07T09:34:59;100750.47;;;21.24;20.75
49627;BME280;35527;54.616;39.786;2023-04-07T09:38:04;100751.97;;;21.41;20.56
49627;BME280;35527;54.616;39.786;2023-04-07T09:41:13;100750.28;;;21.52;20.09
49627;BME280;35527;54.616;39.786;2023-04-07T09:44:18;100744.78;;;21.43;19.98
49627;BME280;35527;54.616;39.786;2023-04-07T09:47:28;100738.78;;;21.66;20.06
49627;BME280;35527;54.616;39.786;2023-04-07T09:50:34;100740.31;;;20.79;20.43
49627;BME280;35527;54.616;39.786;2023-04-07T09:53:41;100746.25;;;20.56;20.64
49627;BME280;35527;54.616;39.786;2023-04-07T09:56:46;100747.91;;;20.02;20.86
49627;BME280;35527;54.616;39.786;2023-04-07T09:59:50;100736.31;;;20.19;20.85
49627;BME280;35527;54.616;39.786;2023-04-07T10:02:55;100740.63;;;20.47;20.86
49627;BME280;35527;54.616;39.786;2023-04-07T10:05:58;100731.31;;;19.88;21.19
49627;BME280;35527;54.616;39.786;2023-04-07T10:09:03;100736.69;;;19.29;22.11
49627;BME280;35527;54.616;39.786;2023-04-07T10:12:06;100743.38;;;18.90;22.34
49627;BME280;35527;54.616;39.786;2023-04-07T10:15:14;100736.78;;;19.27;22.76
49627;BME280;35527;54.616;39.786;2023-04-07T10:18:18;100738.25;;;19.60;22.33
49627;BME280;35527;54.616;39.786;2023-04-07T10:21:22;100747.13;;;18.70;22.31
49627;BME280;35527;54.616;39.786;2023-04-07T10:27:52;100745.88;;;18.61;22.33
49627;BME280;35527;54.616;39.786;2023-04-07T10:30:56;100745.81;;;18.63;22.04
49627;BME280;35527;54.616;39.786;2023-04-07T10:34:00;100742.31;;;18.78;22.32
49627;BME280;35527;54.616;39.786;2023-04-07T10:37:11;100749.09;;;18.66;22.63
49627;BME280;35527;54.616;39.786;2023-04-07T10:43:55;100741.31;;;18.81;22.22
49627;BME280;35527;54.616;39.786;2023-04-07T10:53:17;100731.19;;;18.75;22.24
49627;BME280;35527;54.616;39.786;2023-04-07T10:56:25;100733.75;;;18.44;22.58
49627;BME280;35527;54.616;39.786;2023-04-07T10:59:31;100744.28;;;18.59;22.39
49627;BME280;35527;54.616;39.786;2023-04-07T11:02:34;100738.53;;;18.06;22.56
49627;BME280;35527;54.616;39.786;2023-04-07T11:05:41;100736.06;;;17.87;23.21
49627;BME280;35527;54.616;39.786;2023-04-07T11:08:46;100741.31;;;18.19;22.85
49627;BME280;35527;54.616;39.786;2023-04-07T11:11:50;100733.34;;;18.36;22.81
49627;BME280;35527;54.616;39.786;2023-04-07T11:14:53;100739.53;;;17.88;23.35
49627;BME280;35527;54.616;39.786;2023-04-07T11:18:10;100743.31;;;17.82;23.85
49627;BME280;35527;54.616;39.786;2023-04-07T11:21:17;100742.41;;;18.15;23.82
49627;BME280;35527;54.616;39.786;2023-04-07T11:24:33;100734.06;;;17.92;23.51
49627;BME280;35527;54.616;39.786;2023-04-07T11:27:38;100730.59;;;17.43;24.27
49627;BME280;35527;54.616;39.786;2023-04-07T11:30:45;100734.00;;;17.61;24.11
49627;BME280;35527;54.616;39.786;2023-04-07T11:33:52;100732.81;;;17.66;23.24
49627;BME280;35527;54.616;39.786;2023-04-07T11:36:55;100738.63;;;17.55;23.07
49627;BME280;35527;54.616;39.786;2023-04-07T11:40:01;100733.66;;;17.33;23.28
49627;BME280;35527;54.616;39.786;2023-04-07T11:43:14;100738.00;;;17.34;22.44
49627;BME280;35527;54.616;39.786;2023-04-07T11:46:17;100730.72;;;17.06;22.39
49627;BME280;35527;54.616;39.786;2023-04-07T11:49:20;100740.63;;;16.82;22.56
49627;BME280;35527;54.616;39.786;2023-04-07T11:52:23;100737.75;;;16.88;22.52
49627;BME280;35527;54.616;39.786;2023-04-07T11:55:28;100734.56;;;16.82;22.48
49627;BME280;35527;54.616;39.786;2023-04-07T11:58:32;100740.94;;;16.94;22.99
49627;BME280;35527;54.616;39.786;2023-04-07T12:01:39;100730.88;;;17.03;23.02
49627;BME280;35527;54.616;39.786;2023-04-07T12:04:56;100737.28;;;16.98;23.23
49627;BME280;35527;54.616;39.786;2023-04-07T12:08:05;100736.97;;;16.86;23.45
49627;BME280;35527;54.616;39.786;2023-04-07T12:11:11;100731.59;;;16.53;24.55
49627;BME280;35527;54.616;39.786;2023-04-07T12:14:16;100740.00;;;16.24;24.13
49627;BME280;35527;54.616;39.786;2023-04-07T12:17:23;100725.28;;;16.23;24.39
49627;BME280;35527;54.616;39.786;2023-04-07T12:20:31;100732.00;;;16.46;24.09
49627;BME280;35527;54.616;39.786;2023-04-07T12:23:36;100729.81;;;16.36;23.91
49627;BME280;35527;54.616;39.786;2023-04-07T12:26:41;100737.47;;;16.22;24.18
49627;BME280;35527;54.616;39.786;2023-04-07T12:29:45;100725.19;;;16.05;24.98
49627;BME280;35527;54.616;39.786;2023-04-07T12:32:56;100733.72;;;16.28;25.01
49627;BME280;35527;54.616;39.786;2023-04-07T12:36:00;100734.81;;;16.05;24.59
49627;BME280;35527;54.616;39.786;2023-04-07T12:39:05;100723.09;;;15.75;24.87
49627;BME280;35527;54.616;39.786;2023-04-07T12:42:10;100731.31;;;15.66;24.44
49627;BME280;35527;54.616;39.786;2023-04-07T12:45:14;100724.69;;;15.59;24.79
49627;BME280;35527;54.616;39.786;2023-04-07T12:48:18;100726.41;;;15.21;25.54
49627;BME280;35527;54.616;39.786;2023-04-07T12:51:20;100733.38;;;15.20;25.85
49627;BME280;35527;54.616;39.786;2023-04-07T12:54:24;100734.63;;;15.12;25.75
49627;BME280;35527;54.616;39.786;2023-04-07T12:57:29;100733.19;;;14.84;26.73
49627;BME280;35527;54.616;39.786;2023-04-07T13:00:36;100733.03;;;14.87;26.70
49627;BME280;35527;54.616;39.786;2023-04-07T13:03:41;100732.19;;;14.86;27.03
49627;BME280;35527;54.616;39.786;2023-04-07T13:06:48;100726.28;;;14.83;27.30
49627;BME280;35527;54.616;39.786;2023-04-07T13:10:00;100733.44;;;14.78;27.49
49627;BME280;35527;54.616;39.786;2023-04-07T13:13:06;100731.41;;;14.64;27.27
49627;BME280;35527;54.616;39.786;2023-04-07T13:16:10;100728.59;;;14.47;27.18
49627;BME280;35527;54.616;39.786;2023-04-07T13:19:14;100734.69;;;14.25;28.16
49627;BME280;35527;54.616;39.786;2023-04-07T13:22:32;100731.44;;;14.18;28.90
49627;BME280;35527;54.616;39.786;2023-04-07T13:25:37;100733.06;;;13.99;28.29
49627;BME280;35527;54.616;39.786;2023-04-07T13:28:43;100737.28;;;13.80;28.14
49627;BME280;35527;54.616;39.786;2023-04-07T13:31:47;100739.38;;;13.70;28.86
49627;BME280;35527;54.616;39.786;2023-04-07T13:34:50;100728.34;;;13.63;29.40
49627;BME280;35527;54.616;39.786;2023-04-07T13:37:54;100729.81;;;12.97;29.25
49627;BME280;35527;54.616;39.786;2023-04-07T13:40:56;100735.06;;;12.95;28.89
49627;BME280;35527;54.616;39.786;2023-04-07T13:43:59;100730.53;;;12.75;29.95
49627;BME280;35527;54.616;39.786;2023-04-07T13:47:03;100746.47;;;12.65;30.37
49627;BME280;35527;54.616;39.786;2023-04-07T13:50:08;100736.44;;;12.54;29.80
49627;BME280;35527;54.616;39.786;2023-04-07T13:53:11;100733.41;;;12.68;29.97
49627;BME280;35527;54.616;39.786;2023-04-07T13:56:14;100745.66;;;12.89;29.44
49627;BME280;35527;54.616;39.786;2023-04-07T13:59:18;100731.38;;;13.02;29.35
49627;BME280;35527;54.616;39.786;2023-04-07T14:02:21;100747.94;;;12.98;29.11
49627;BME280;35527;54.616;39.786;2023-04-07T14:05:25;100741.50;;;12.85;30.00
49627;BME280;35527;54.616;39.786;2023-04-07T14:08:27;100741.19;;;12.68;30.67
49627;BME280;35527;54.616;39.786;2023-04-07T14:11:35;100737.13;;;12.32;30.97
49627;BME280;35527;54.616;39.786;2023-04-07T14:14:39;100733.06;;;12.24;32.06
49627;BME280;35527;54.616;39.786;2023-04-07T14:17:46;100734.44;;;12.35;32.02
49627;BME280;35527;54.616;39.786;2023-04-07T14:20:49;100733.53;;;12.36;32.48
49627;BME280;35527;54.616;39.786;2023-04-07T14:23:53;100727.13;;;12.20;33.15
49627;BME280;35527;54.616;39.786;2023-04-07T14:26:58;100719.47;;;12.15;31.73
49627;BME280;35527;54.616;39.786;2023-04-07T14:30:03;100734.69;;;12.00;31.77
49627;BME280;35527;54.616;39.786;2023-04-07T14:33:06;100726.81;;;12.01;31.10
49627;BME280;35527;54.616;39.786;2023-04-07T14:36:14;100725.00;;;12.05;29.91
49627;BME280;35527;54.616;39.786;2023-04-07T14:39:24;100731.41;;;11.93;30.64
49627;BME280;35527;54.616;39.786;2023-04-07T14:42:28;100725.38;;;11.61;30.35
49627;BME280;35527;54.616;39.786;2023-04-07T14:45:33;100735.34;;;11.45;31.21
49627;BME280;35527;54.616;39.786;2023-04-07T14:48:41;100737.50;;;11.30;31.96
49627;BME280;35527;54.616;39.786;2023-04-07T14:51:44;100734.34;;;11.18;32.49
49627;BME280;35527;54.616;39.786;2023-04-07T14:54:49;100733.63;;;11.13;33.05
49627;BME280;35527;54.616;39.786;2023-04-07T14:57:52;100732.81;;;11.11;32.37
49627;BME280;35527;54.616;39.786;2023-04-07T15:00:57;100736.59;;;10.99;33.31
49627;BME280;35527;54.616;39.786;2023-04-07T15:03:59;100735.94;;;10.91;34.21
49627;BME280;35527;54.616;39.786;2023-04-07T15:07:02;100735.19;;;10.86;33.80
49627;BME280;35527;54.616;39.786;2023-04-07T15:10:04;100738.25;;;10.68;33.34
49627;BME280;35527;54.616;39.786;2023-04-07T15:13:15;100742.16;;;10.48;33.44
49627;BME280;35527;54.616;39.786;2023-04-07T15:16:18;100741.34;;;10.46;34.38
49627;BME280;35527;54.616;39.786;2023-04-07T15:19:24;100736.97;;;10.48;34.85
49627;BME280;35527;54.616;39.786;2023-04-07T15:22:26;100733.63;;;10.45;35.45
49627;BME280;35527;54.616;39.786;2023-04-07T15:25:30;100737.22;;;10.39;35.56
49627;BME280;35527;54.616;39.786;2023-04-07T15:28:41;100749.28;;;10.38;35.85
49627;BME280;35527;54.616;39.786;2023-04-07T15:31:44;100749.41;;;10.32;35.92
49627;BME280;35527;54.616;39.786;2023-04-07T15:34:48;100746.13;;;10.24;36.62
49627;BME280;35527;54.616;39.786;2023-04-07T15:37:51;100749.75;;;10.15;35.58
49627;BME280;35527;54.616;39.786;2023-04-07T15:40:56;100759.31;;;10.13;34.83
49627;BME280;35527;54.616;39.786;2023-04-07T15:44:02;100756.91;;;10.04;35.42
49627;BME280;35527;54.616;39.786;2023-04-07T15:47:07;100766.53;;;9.99;36.43
49627;BME280;35527;54.616;39.786;2023-04-07T15:50:12;100761.59;;;9.87;37.57
49627;BME280;35527;54.616;39.786;2023-04-07T15:53:16;100764.47;;;9.73;36.20
49627;BME280;35527;54.616;39.786;2023-04-07T15:56:19;100773.28;;;9.63;37.64
49627;BME280;35527;54.616;39.786;2023-04-07T15:59:26;100776.13;;;9.51;38.98
49627;BME280;35527;54.616;39.786;2023-04-07T16:02:35;100786.72;;;9.35;40.46
49627;BME280;35527;54.616;39.786;2023-04-07T16:05:39;100789.56;;;9.21;40.59
49627;BME280;35527;54.616;39.786;2023-04-07T16:08:43;100789.75;;;9.11;40.76
49627;BME280;35527;54.616;39.786;2023-04-07T16:11:45;100795.88;;;9.03;40.64
49627;BME280;35527;54.616;39.786;2023-04-07T16:14:51;100797.75;;;8.95;40.72
49627;BME280;35527;54.616;39.786;2023-04-07T16:17:55;100793.69;;;8.82;40.68
49627;BME280;35527;54.616;39.786;2023-04-07T16:20:59;100806.59;;;8.80;41.02
49627;BME280;35527;54.616;39.786;2023-04-07T16:24:04;100805.00;;;8.72;41.23